Terminal Aerodrome Forecast
Issued by NWS Cleveland, OH

Home | Current Version | Previous Version | Text Only | Print | Product List | Glossary On
Versions: 1 2 3 4 5 6 7 8 9 10 11 12 13 14 15 16 17 18 19 20 21 22 23 24 25 26 27
538
FTUS41 KCLE 281122
TAFCLE
TAF
KCLE 281122Z 2812/0118 18005KT P6SM BKN045 OVC100
     FM281400 16010KT 6SM -RA BR OVC045
     FM281600 17012KT P6SM OVC035
     FM282000 19014G22KT P6SM OVC025
     FM010500 20016G26KT 6SM -DZ OVC012 WS020/22050KT
     FM010800 20014G24KT 4SM -SHRA BR VCTS OVC008CB WS020/22055KT
     FM011600 21018G28KT P6SM SCT035 BKN100 WS020/25055KT=

USA.gov is the U.S. government's official web portal to all federal, state and local government web resources and services.